Morgan Ray — WDF6085 — position and weather

sailwx.info

Track history (hours):
 
Tides and Currents Weather Stations Pressure Air Temp Water Temp Dewpoint Dewpoint Depression Visibility Wind Speed Wind Dir Waves Ship Positions

Morgan Ray

Owner: Daigle Towing Service LLC., Belle Chasse, LA. More information available from US FCC via Universal Licensing System and Coast Guard Vessel Documentation Center.

Last reported at 2014-Nov-22 02:20 UTC. Time now 2014-Nov-23 03:31 UTC.
Position N 29°54' W 090°05'.

Length 20 m; draft 2 m.

Type: Tug. MMSI: 367470470.

Date/timePositionNaut miles runAvg speedWind from/ knotsBaromVisibWave heightAir tempDewpointWater temp
2014-Nov-22 02:20N 29°54' W 090°05'0 0.0
2014-Nov-22 01:29N 29°54' W 090°05'1 0.8
2014-Nov-22 00:25N 29°55' W 090°05'3 0.3
2014-Nov-21 16:22N 29°55' W 090°08'3 2.4
2014-Nov-21 15:04N 29°54' W 090°05'2 4.1
2014-Nov-21 14:33N 29°52' W 090°04'  
2014-Nov-18 17:20N 29°50' W 090°04'4 4.7
2014-Nov-18 16:29N 29°54' W 090°05'0 0.4
2014-Nov-18 15:33N 29°54' W 090°05'0 0.0
2014-Nov-18 14:33N 29°54' W 090°05'0 0.0
2014-Nov-18 13:33N 29°54' W 090°05'0 0.0
2014-Nov-18 12:32N 29°54' W 090°05'0 0.0
2014-Nov-18 11:33N 29°54' W 090°05'0 0.0
2014-Nov-18 10:32N 29°54' W 090°05'0 0.0
2014-Nov-17 13:26N 29°54' W 090°05'0 0.0
2014-Nov-17 12:33N 29°54' W 090°05'0 0.0
2014-Nov-17 11:32N 29°54' W 090°05'0 0.0
2014-Nov-17 10:33N 29°54' W 090°05'0 0.0
2014-Nov-17 09:31N 29°54' W 090°05'0 0.0
2014-Nov-17 08:33N 29°54' W 090°05'0 0.0
2014-Nov-17 07:32N 29°54' W 090°05'0 0.0
2014-Nov-17 06:33N 29°54' W 090°05'0 0.0
2014-Nov-17 05:33N 29°54' W 090°05'0 0.0
2014-Nov-17 04:04N 29°54' W 090°05'0 0.0
2014-Nov-16 17:27N 29°54' W 090°05'0 0.0
2014-Nov-16 16:18N 29°54' W 090°05'0 0.0
2014-Nov-16 15:16N 29°54' W 090°05'0 0.0
2014-Nov-16 14:29N 29°54' W 090°05'0 0.0
2014-Nov-16 13:27N 29°54' W 090°05'0 0.0
2014-Nov-16 12:29N 29°54' W 090°05'0 0.0
2014-Nov-16 11:28N 29°54' W 090°05'0 0.0
2014-Nov-16 10:24N 29°54' W 090°05'0 0.0
2014-Nov-16 09:32N 29°54' W 090°05'0 0.0
2014-Nov-16 08:33N 29°54' W 090°05'0 0.0
2014-Nov-16 07:33N 29°54' W 090°05'5 0.2
2014-Nov-15 03:14N 29°56' W 089°59'4 5.6
2014-Nov-15 02:32N 29°55' W 090°04'  
2014-Nov-12 07:21N 29°56' W 089°59'3 0.9
2014-Nov-12 04:33N 29°57' W 090°01'  
Track history (hours):
 
Tides and Currents Weather Stations Pressure Air Temp Water Temp Dewpoint Dewpoint Depression Visibility Wind Speed Wind Dir Waves Ship Positions

Morgan Ray

Owner: Daigle Towing Service LLC., Belle Chasse, LA. More information available from US FCC via Universal Licensing System and Coast Guard Vessel Documentation Center.

Last reported at 2014-Nov-22 02:20 UTC. Time now 2014-Nov-23 03:31 UTC.
Position N 29°54' W 090°05'.

Length 20 m; draft 2 m.

Type: Tug. MMSI: 367470470.

Date/timePositionNaut miles runAvg speedWind from/ knotsBaromVisibWave heightAir tempDewpointWater temp
2014-Nov-22 02:20N 29°54' W 090°05'0 0.0
2014-Nov-22 01:29N 29°54' W 090°05'1 0.8
2014-Nov-22 00:25N 29°55' W 090°05'3 0.3
2014-Nov-21 16:22N 29°55' W 090°08'3 2.4
2014-Nov-21 15:04N 29°54' W 090°05'2 4.1
2014-Nov-21 14:33N 29°52' W 090°04'  
2014-Nov-18 17:20N 29°50' W 090°04'4 4.7
2014-Nov-18 16:29N 29°54' W 090°05'0 0.4
2014-Nov-18 15:33N 29°54' W 090°05'0 0.0
2014-Nov-18 14:33N 29°54' W 090°05'0 0.0
2014-Nov-18 13:33N 29°54' W 090°05'0 0.0
2014-Nov-18 12:32N 29°54' W 090°05'0 0.0
2014-Nov-18 11:33N 29°54' W 090°05'0 0.0
2014-Nov-18 10:32N 29°54' W 090°05'0 0.0
2014-Nov-17 13:26N 29°54' W 090°05'0 0.0
2014-Nov-17 12:33N 29°54' W 090°05'0 0.0
2014-Nov-17 11:32N 29°54' W 090°05'0 0.0
2014-Nov-17 10:33N 29°54' W 090°05'0 0.0
2014-Nov-17 09:31N 29°54' W 090°05'0 0.0
2014-Nov-17 08:33N 29°54' W 090°05'0 0.0
2014-Nov-17 07:32N 29°54' W 090°05'0 0.0
2014-Nov-17 06:33N 29°54' W 090°05'0 0.0
2014-Nov-17 05:33N 29°54' W 090°05'0 0.0
2014-Nov-17 04:04N 29°54' W 090°05'0 0.0
2014-Nov-16 17:27N 29°54' W 090°05'0 0.0
2014-Nov-16 16:18N 29°54' W 090°05'0 0.0
2014-Nov-16 15:16N 29°54' W 090°05'0 0.0
2014-Nov-16 14:29N 29°54' W 090°05'0 0.0
2014-Nov-16 13:27N 29°54' W 090°05'0 0.0
2014-Nov-16 12:29N 29°54' W 090°05'0 0.0
2014-Nov-16 11:28N 29°54' W 090°05'0 0.0
2014-Nov-16 10:24N 29°54' W 090°05'0 0.0
2014-Nov-16 09:32N 29°54' W 090°05'0 0.0
2014-Nov-16 08:33N 29°54' W 090°05'0 0.0
2014-Nov-16 07:33N 29°54' W 090°05'5 0.2
2014-Nov-15 03:14N 29°56' W 089°59'4 5.6
2014-Nov-15 02:32N 29°55' W 090°04'  
2014-Nov-12 07:21N 29°56' W 089°59'3 0.9
2014-Nov-12 04:33N 29°57' W 090°01'  

Dump ship's entire track history